PAL2981 RPLL-RPVA
Flight info
| Callsign | PAL2981 |
|---|---|
| Flight time | N/A |
| Altitude | 33000 |
| Route | IPATA2R IPATA B462 ARREX ARREX2R |
| Aircraft | A321/M-SDE3FGHIRWY/LB1 |
Departure
| Time | 2026-05-07 20:53 |
|---|---|
| Airport | Ninoy Aquino International Airport (RPLL) |
Arrival
| Time | N/A |
|---|---|
| Airport | Daniel Z. Romualdez Airport (RPVA) |
| Time | Latitude | Longitude | Altitude | Speed | Heading |
|---|---|---|---|---|---|
| 2026-05-07 20:53 | 14.58248 | 121.25635 | 7776 ft | 273 kts | 108° |
| 2026-05-07 20:53 | 14.57264 | 121.27312 | 8372 ft | 278 kts | 132° |
| 2026-05-07 20:53 | 14.55749 | 121.28557 | 8962 ft | 282 kts | 141° |
| 2026-05-07 20:53 | 14.54164 | 121.29748 | 9513 ft | 285 kts | 141° |
| 2026-05-07 20:54 | 14.52541 | 121.30978 | 10053 ft | 288 kts | 141° |
| 2026-05-07 20:54 | 14.50921 | 121.32214 | 10402 ft | 298 kts | 141° |
| 2026-05-07 20:54 | 14.49198 | 121.33532 | 10650 ft | 312 kts | 141° |
| 2026-05-07 20:54 | 14.47438 | 121.34879 | 10884 ft | 325 kts | 141° |
| 2026-05-07 20:55 | 14.45569 | 121.36311 | 11128 ft | 338 kts | 141° |
| 2026-05-07 20:55 | 14.43675 | 121.37762 | 11512 ft | 344 kts | 141° |
| 2026-05-07 20:55 | 14.41746 | 121.39238 | 11992 ft | 347 kts | 141° |
| 2026-05-07 20:55 | 14.39785 | 121.40739 | 12467 ft | 350 kts | 141° |
| 2026-05-07 20:56 | 14.37833 | 121.42234 | 12914 ft | 353 kts | 141° |
| 2026-05-07 20:56 | 14.35843 | 121.43758 | 13343 ft | 357 kts | 141° |
| 2026-05-07 20:56 | 14.33828 | 121.45302 | 13787 ft | 360 kts | 141° |
| 2026-05-07 20:56 | 14.31823 | 121.46837 | 14224 ft | 362 kts | 142° |
| 2026-05-07 20:57 | 14.29794 | 121.48391 | 14657 ft | 364 kts | 142° |
| 2026-05-07 20:57 | 14.27760 | 121.49946 | 15078 ft | 367 kts | 141° |
| 2026-05-07 20:57 | 14.25683 | 121.51530 | 15520 ft | 369 kts | 142° |
| 2026-05-07 20:57 | 14.23634 | 121.53089 | 15934 ft | 371 kts | 141° |
| 2026-05-07 20:58 | 14.21527 | 121.54694 | 16335 ft | 373 kts | 141° |
| 2026-05-07 20:58 | 14.19455 | 121.56273 | 16717 ft | 375 kts | 141° |
| 2026-05-07 20:58 | 14.17330 | 121.57890 | 17100 ft | 378 kts | 141° |
| 2026-05-07 20:58 | 14.15208 | 121.59506 | 17474 ft | 380 kts | 141° |
| 2026-05-07 20:59 | 14.13073 | 121.61134 | 17845 ft | 383 kts | 141° |
| 2026-05-07 20:59 | 14.10937 | 121.62759 | 18210 ft | 385 kts | 141° |
| 2026-05-07 20:59 | 14.08769 | 121.64411 | 18577 ft | 387 kts | 141° |
| 2026-05-07 20:59 | 14.06607 | 121.66059 | 18943 ft | 389 kts | 141° |
| 2026-05-07 21:00 | 14.04414 | 121.67731 | 19310 ft | 390 kts | 141° |
| 2026-05-07 21:00 | 14.02239 | 121.69391 | 19673 ft | 392 kts | 142° |
| 2026-05-07 21:00 | 14.00047 | 121.71064 | 20019 ft | 394 kts | 142° |
| 2026-05-07 21:00 | 13.97832 | 121.72755 | 20355 ft | 396 kts | 142° |
| 2026-05-07 21:01 | 13.95602 | 121.74455 | 20682 ft | 398 kts | 142° |
| 2026-05-07 21:01 | 13.93387 | 121.76145 | 20994 ft | 400 kts | 142° |
| 2026-05-07 21:01 | 13.91138 | 121.77857 | 21310 ft | 402 kts | 142° |
| 2026-05-07 21:01 | 13.88897 | 121.79590 | 21628 ft | 403 kts | 140° |
| 2026-05-07 21:02 | 13.86762 | 121.81477 | 21935 ft | 404 kts | 135° |
| 2026-05-07 21:02 | 13.84769 | 121.83553 | 22237 ft | 405 kts | 130° |
| 2026-05-07 21:02 | 13.82952 | 121.85721 | 22551 ft | 406 kts | 129° |
| 2026-05-07 21:02 | 13.81137 | 121.87947 | 22841 ft | 408 kts | 128° |
| 2026-05-07 21:03 | 13.79314 | 121.90191 | 23134 ft | 409 kts | 128° |
| 2026-05-07 21:03 | 13.77474 | 121.92455 | 23420 ft | 411 kts | 128° |
| 2026-05-07 21:03 | 13.75635 | 121.94714 | 23689 ft | 413 kts | 129° |
| 2026-05-07 21:03 | 13.73777 | 121.96995 | 23952 ft | 415 kts | 129° |
| 2026-05-07 21:04 | 13.71933 | 121.99254 | 24211 ft | 417 kts | 129° |
| 2026-05-07 21:04 | 13.70063 | 122.01546 | 24472 ft | 419 kts | 129° |
| 2026-05-07 21:04 | 13.68184 | 122.03845 | 24719 ft | 421 kts | 129° |
| 2026-05-07 21:04 | 13.66287 | 122.06165 | 24965 ft | 423 kts | 129° |
| 2026-05-07 21:05 | 13.64394 | 122.08482 | 25206 ft | 425 kts | 129° |
| 2026-05-07 21:05 | 13.62494 | 122.10805 | 25442 ft | 427 kts | 129° |
| 2026-05-07 21:05 | 13.60562 | 122.13167 | 25678 ft | 430 kts | 129° |
| 2026-05-07 21:05 | 13.58640 | 122.15517 | 25916 ft | 431 kts | 129° |
| 2026-05-07 21:06 | 13.56721 | 122.17862 | 26151 ft | 433 kts | 129° |
| 2026-05-07 21:06 | 13.54771 | 122.20245 | 26387 ft | 435 kts | 129° |
| 2026-05-07 21:06 | 13.52818 | 122.22628 | 26622 ft | 437 kts | 129° |
| 2026-05-07 21:06 | 13.50848 | 122.25031 | 26850 ft | 439 kts | 129° |
| 2026-05-07 21:07 | 13.48883 | 122.27428 | 27065 ft | 441 kts | 129° |
| 2026-05-07 21:07 | 13.46901 | 122.29846 | 27274 ft | 443 kts | 129° |
| 2026-05-07 21:07 | 13.44923 | 122.32261 | 27504 ft | 444 kts | 129° |
| 2026-05-07 21:07 | 13.42936 | 122.34687 | 27749 ft | 445 kts | 130° |
| 2026-05-07 21:08 | 13.40934 | 122.37129 | 27992 ft | 446 kts | 130° |
| 2026-05-07 21:08 | 13.38941 | 122.39559 | 28237 ft | 447 kts | 130° |
| 2026-05-07 21:08 | 13.36943 | 122.41991 | 28465 ft | 448 kts | 130° |
| 2026-05-07 21:08 | 13.34939 | 122.44429 | 28677 ft | 449 kts | 130° |
| 2026-05-07 21:09 | 13.32937 | 122.46866 | 28883 ft | 450 kts | 130° |
| 2026-05-07 21:09 | 13.30894 | 122.49353 | 29085 ft | 452 kts | 130° |
| 2026-05-07 21:09 | 13.28865 | 122.51821 | 29274 ft | 453 kts | 130° |
| 2026-05-07 21:09 | 13.26847 | 122.54276 | 29527 ft | 453 kts | 130° |
| 2026-05-07 21:10 | 13.24814 | 122.56749 | 29802 ft | 452 kts | 130° |
| 2026-05-07 21:10 | 13.22775 | 122.59229 | 30059 ft | 452 kts | 130° |
| 2026-05-07 21:10 | 13.20766 | 122.61671 | 30297 ft | 452 kts | 131° |
| 2026-05-07 21:10 | 13.18740 | 122.64133 | 30534 ft | 452 kts | 130° |
| 2026-05-07 21:11 | 13.16723 | 122.66583 | 30761 ft | 452 kts | 131° |
| 2026-05-07 21:11 | 13.14695 | 122.69046 | 30988 ft | 451 kts | 131° |
| 2026-05-07 21:11 | 13.10645 | 122.73963 | 31378 ft | 453 kts | 131° |
| 2026-05-07 21:12 | 13.08586 | 122.76461 | 31565 ft | 454 kts | 131° |
| 2026-05-07 21:12 | 13.06567 | 122.78909 | 31753 ft | 452 kts | 131° |
| 2026-05-07 21:12 | 13.04561 | 122.81345 | 31944 ft | 446 kts | 131° |
| 2026-05-07 21:12 | 13.02536 | 122.83801 | 31776 ft | 445 kts | 131° |
| 2026-05-07 21:13 | 13.00545 | 122.86214 | 31536 ft | 444 kts | 131° |
| 2026-05-07 21:13 | 12.98562 | 122.88615 | 31294 ft | 444 kts | 131° |
| 2026-05-07 21:13 | 12.96559 | 122.91040 | 31048 ft | 443 kts | 131° |
| 2026-05-07 21:13 | 12.94565 | 122.93453 | 30805 ft | 443 kts | 131° |
| 2026-05-07 21:14 | 12.92588 | 122.95846 | 30565 ft | 443 kts | 131° |
| 2026-05-07 21:14 | 12.90594 | 122.98259 | 30321 ft | 443 kts | 131° |
| 2026-05-07 21:14 | 12.88613 | 123.00657 | 30082 ft | 443 kts | 131° |
| 2026-05-07 21:14 | 12.86604 | 123.03088 | 29839 ft | 443 kts | 131° |
| 2026-05-07 21:15 | 12.84614 | 123.05496 | 29597 ft | 443 kts | 131° |
| 2026-05-07 21:15 | 12.82631 | 123.07894 | 29356 ft | 443 kts | 131° |
| 2026-05-07 21:15 | 12.80653 | 123.10286 | 29116 ft | 443 kts | 131° |
| 2026-05-07 21:15 | 12.78661 | 123.12694 | 28872 ft | 442 kts | 130° |
| 2026-05-07 21:16 | 12.76673 | 123.15096 | 28629 ft | 442 kts | 130° |
| 2026-05-07 21:16 | 12.74682 | 123.17502 | 28378 ft | 442 kts | 130° |
| 2026-05-07 21:16 | 12.72704 | 123.19892 | 28129 ft | 442 kts | 130° |
| 2026-05-07 21:16 | 12.70717 | 123.22291 | 27878 ft | 440 kts | 130° |
| 2026-05-07 21:17 | 12.68743 | 123.24675 | 27628 ft | 438 kts | 130° |
| 2026-05-07 21:17 | 12.66763 | 123.27065 | 27377 ft | 436 kts | 130° |
| 2026-05-07 21:17 | 12.64799 | 123.29434 | 27127 ft | 435 kts | 130° |
| 2026-05-07 21:17 | 12.62869 | 123.31762 | 26879 ft | 433 kts | 130° |
| 2026-05-07 21:18 | 12.60914 | 123.34120 | 26628 ft | 431 kts | 130° |
| 2026-05-07 21:18 | 12.58986 | 123.36445 | 26379 ft | 429 kts | 130° |
| 2026-05-07 21:18 | 12.57048 | 123.38782 | 26129 ft | 428 kts | 130° |
| 2026-05-07 21:18 | 12.55125 | 123.41101 | 25879 ft | 426 kts | 130° |
| 2026-05-07 21:19 | 12.53234 | 123.43381 | 25633 ft | 425 kts | 130° |
| 2026-05-07 21:19 | 12.51323 | 123.45682 | 25383 ft | 423 kts | 130° |
| 2026-05-07 21:19 | 12.49407 | 123.47991 | 25130 ft | 422 kts | 129° |
| 2026-05-07 21:19 | 12.47527 | 123.50255 | 24884 ft | 420 kts | 129° |
| 2026-05-07 21:20 | 12.45627 | 123.52543 | 24636 ft | 418 kts | 129° |
| 2026-05-07 21:20 | 12.43739 | 123.54817 | 24385 ft | 417 kts | 129° |
| 2026-05-07 21:20 | 12.41887 | 123.57048 | 24140 ft | 416 kts | 129° |
| 2026-05-07 21:20 | 12.40003 | 123.59316 | 23891 ft | 414 kts | 129° |
| 2026-05-07 21:21 | 12.38155 | 123.61539 | 23644 ft | 413 kts | 129° |
| 2026-05-07 21:21 | 12.36274 | 123.63807 | 23398 ft | 412 kts | 128° |
| 2026-05-07 21:21 | 12.34461 | 123.66032 | 23159 ft | 410 kts | 128° |
| 2026-05-07 21:21 | 12.32640 | 123.68282 | 22914 ft | 409 kts | 128° |
| 2026-05-07 21:22 | 12.30830 | 123.70520 | 22672 ft | 407 kts | 128° |
| 2026-05-07 21:22 | 12.29036 | 123.72738 | 22429 ft | 405 kts | 128° |
| 2026-05-07 21:22 | 12.27231 | 123.74968 | 22186 ft | 404 kts | 128° |
| 2026-05-07 21:22 | 12.25447 | 123.77171 | 21953 ft | 402 kts | 128° |
| 2026-05-07 21:23 | 12.23677 | 123.79356 | 21719 ft | 400 kts | 128° |
| 2026-05-07 21:23 | 12.21896 | 123.81554 | 21481 ft | 399 kts | 128° |
| 2026-05-07 21:23 | 12.20136 | 123.83725 | 21248 ft | 397 kts | 128° |
| 2026-05-07 21:23 | 12.18371 | 123.85901 | 21013 ft | 396 kts | 128° |
| 2026-05-07 21:24 | 12.16623 | 123.88056 | 20775 ft | 394 kts | 128° |
| 2026-05-07 21:24 | 12.14884 | 123.90200 | 20530 ft | 392 kts | 128° |
| 2026-05-07 21:24 | 12.13132 | 123.92360 | 20267 ft | 390 kts | 127° |
| 2026-05-07 21:24 | 12.11424 | 123.94466 | 19919 ft | 388 kts | 127° |
| 2026-05-07 21:25 | 12.09694 | 123.96596 | 19503 ft | 386 kts | 127° |
| 2026-05-07 21:25 | 12.07999 | 123.98686 | 19070 ft | 384 kts | 127° |
| 2026-05-07 21:25 | 12.06290 | 124.00790 | 18619 ft | 382 kts | 127° |
| 2026-05-07 21:25 | 12.04589 | 124.02882 | 18164 ft | 380 kts | 127° |
| 2026-05-07 21:26 | 12.02911 | 124.04946 | 17709 ft | 379 kts | 127° |
| 2026-05-07 21:26 | 12.01238 | 124.07006 | 17249 ft | 377 kts | 126° |
| 2026-05-07 21:26 | 11.99564 | 124.09068 | 16800 ft | 376 kts | 126° |
| 2026-05-07 21:26 | 11.97907 | 124.11109 | 16344 ft | 374 kts | 127° |
| 2026-05-07 21:27 | 11.96260 | 124.13139 | 15881 ft | 373 kts | 127° |
| 2026-05-07 21:27 | 11.94606 | 124.15176 | 15410 ft | 372 kts | 127° |
| 2026-05-07 21:27 | 11.92960 | 124.17201 | 14945 ft | 370 kts | 127° |
| 2026-05-07 21:27 | 11.91308 | 124.19233 | 14480 ft | 369 kts | 127° |
| 2026-05-07 21:28 | 11.89679 | 124.21236 | 14020 ft | 368 kts | 127° |
| 2026-05-07 21:28 | 11.88046 | 124.23242 | 13553 ft | 366 kts | 127° |
| 2026-05-07 21:28 | 11.86419 | 124.25243 | 13087 ft | 364 kts | 127° |
| 2026-05-07 21:28 | 11.84814 | 124.27211 | 12843 ft | 355 kts | 127° |
| 2026-05-07 21:29 | 11.83254 | 124.29118 | 12862 ft | 348 kts | 127° |
| 2026-05-07 21:29 | 11.81712 | 124.31010 | 12879 ft | 348 kts | 127° |
| 2026-05-07 21:29 | 11.80148 | 124.32928 | 12906 ft | 348 kts | 127° |
| 2026-05-07 21:29 | 11.78609 | 124.34815 | 12927 ft | 349 kts | 127° |
| 2026-05-07 21:30 | 11.77051 | 124.36726 | 12949 ft | 349 kts | 127° |
| 2026-05-07 21:30 | 11.75504 | 124.38625 | 12963 ft | 349 kts | 127° |
| 2026-05-07 21:30 | 11.73941 | 124.40542 | 12971 ft | 349 kts | 127° |
| 2026-05-07 21:30 | 11.72392 | 124.42440 | 12971 ft | 349 kts | 127° |
| 2026-05-07 21:31 | 11.70848 | 124.44334 | 12980 ft | 349 kts | 127° |
| 2026-05-07 21:31 | 11.69282 | 124.46252 | 12988 ft | 348 kts | 127° |
| 2026-05-07 21:31 | 11.67736 | 124.48150 | 12988 ft | 349 kts | 127° |
| 2026-05-07 21:31 | 11.66180 | 124.50058 | 12990 ft | 348 kts | 127° |
| 2026-05-07 21:32 | 11.64629 | 124.51959 | 12992 ft | 348 kts | 127° |
| 2026-05-07 21:32 | 11.63081 | 124.53855 | 12990 ft | 348 kts | 127° |
| 2026-05-07 21:32 | 11.61528 | 124.55756 | 12989 ft | 348 kts | 127° |
| 2026-05-07 21:32 | 11.59986 | 124.57644 | 12900 ft | 349 kts | 127° |
| 2026-05-07 21:33 | 11.58420 | 124.59563 | 12393 ft | 352 kts | 127° |
| 2026-05-07 21:33 | 11.56851 | 124.61486 | 11905 ft | 352 kts | 127° |
| 2026-05-07 21:33 | 11.55294 | 124.63393 | 11447 ft | 351 kts | 127° |
| 2026-05-07 21:33 | 11.53731 | 124.65305 | 10991 ft | 350 kts | 127° |
| 2026-05-07 21:34 | 11.52170 | 124.67212 | 10557 ft | 348 kts | 127° |
| 2026-05-07 21:34 | 11.50608 | 124.69051 | 10339 ft | 336 kts | 131° |
| 2026-05-07 21:34 | 11.48939 | 124.70593 | 10219 ft | 318 kts | 139° |
| 2026-05-07 21:34 | 11.47160 | 124.71899 | 10095 ft | 305 kts | 142° |
| 2026-05-07 21:35 | 11.45426 | 124.73100 | 9934 ft | 297 kts | 143° |
| 2026-05-07 21:35 | 11.43728 | 124.74270 | 9551 ft | 297 kts | 143° |
| 2026-05-07 21:35 | 11.42007 | 124.75458 | 9172 ft | 297 kts | 142° |
| 2026-05-07 21:35 | 11.40294 | 124.76643 | 8809 ft | 296 kts | 142° |
| 2026-05-07 21:36 | 11.38591 | 124.77823 | 8490 ft | 294 kts | 142° |
| 2026-05-07 21:36 | 11.36929 | 124.78975 | 8227 ft | 290 kts | 142° |
| 2026-05-07 21:36 | 11.35255 | 124.80135 | 7933 ft | 287 kts | 142° |
| 2026-05-07 21:36 | 11.33612 | 124.81274 | 7554 ft | 287 kts | 142° |
| 2026-05-07 21:37 | 11.31965 | 124.82416 | 7250 ft | 284 kts | 142° |
| 2026-05-07 21:37 | 11.30341 | 124.83541 | 6990 ft | 280 kts | 142° |
| 2026-05-07 21:37 | 11.28744 | 124.84649 | 6737 ft | 276 kts | 142° |
| 2026-05-07 21:37 | 11.27134 | 124.85730 | 6477 ft | 273 kts | 147° |
| 2026-05-07 21:38 | 11.25413 | 124.86491 | 6247 ft | 272 kts | 159° |
| 2026-05-07 21:38 | 11.23579 | 124.86955 | 6072 ft | 266 kts | 163° |
| 2026-05-07 21:38 | 11.21768 | 124.87350 | 5844 ft | 267 kts | 163° |
| 2026-05-07 21:38 | 11.19928 | 124.87749 | 5454 ft | 270 kts | 163° |
| 2026-05-07 21:39 | 11.18071 | 124.88157 | 5093 ft | 271 kts | 163° |
| 2026-05-07 21:39 | 11.16236 | 124.88560 | 4750 ft | 272 kts | 163° |
| 2026-05-07 21:39 | 11.14376 | 124.88972 | 4495 ft | 268 kts | 163° |
| 2026-05-07 21:39 | 11.12585 | 124.89370 | 4256 ft | 264 kts | 163° |
| 2026-05-07 21:40 | 11.10767 | 124.89775 | 3895 ft | 266 kts | 163° |
| 2026-05-07 21:40 | 11.08966 | 124.90177 | 3641 ft | 262 kts | 163° |
| 2026-05-07 21:40 | 11.07198 | 124.90570 | 3413 ft | 259 kts | 163° |
| 2026-05-07 21:40 | 11.05476 | 124.91025 | 3174 ft | 252 kts | 152° |
| 2026-05-07 21:41 | 11.04162 | 124.92125 | 2876 ft | 241 kts | 120° |
| 2026-05-07 21:41 | 11.03611 | 124.93699 | 2638 ft | 235 kts | 94° |
| 2026-05-07 21:41 | 11.03529 | 124.95325 | 2543 ft | 223 kts | 92° |
| 2026-05-07 21:41 | 11.03448 | 124.96841 | 2488 ft | 204 kts | 92° |
| 2026-05-07 21:42 | 11.03366 | 124.98216 | 2520 ft | 188 kts | 92° |
| 2026-05-07 21:42 | 11.03359 | 124.99480 | 2540 ft | 166 kts | 81° |
| 2026-05-07 21:42 | 11.03781 | 125.00494 | 2462 ft | 149 kts | 57° |
| 2026-05-07 21:42 | 11.04520 | 125.01211 | 2464 ft | 152 kts | 37° |
| 2026-05-07 21:43 | 11.05539 | 125.01620 | 2486 ft | 161 kts | 15° |
| 2026-05-07 21:43 | 11.06661 | 125.01736 | 2482 ft | 160 kts | 10° |
| 2026-05-07 21:43 | 11.07775 | 125.01805 | 2474 ft | 159 kts | 9° |
| 2026-05-07 21:43 | 11.08874 | 125.01868 | 2472 ft | 159 kts | 9° |
| 2026-05-07 21:44 | 11.09997 | 125.01938 | 2328 ft | 161 kts | 10° |
| 2026-05-07 21:44 | 11.11125 | 125.02024 | 1990 ft | 160 kts | 9° |
| 2026-05-07 21:44 | 11.12224 | 125.02093 | 1818 ft | 157 kts | 9° |
| 2026-05-07 21:44 | 11.13317 | 125.02161 | 1634 ft | 157 kts | 9° |
| 2026-05-07 21:45 | 11.14414 | 125.02233 | 1437 ft | 157 kts | 8° |
| 2026-05-07 21:45 | 11.15497 | 125.02303 | 1235 ft | 156 kts | 8° |
| 2026-05-07 21:45 | 11.16590 | 125.02375 | 1029 ft | 156 kts | 8° |
| 2026-05-07 21:45 | 11.17673 | 125.02446 | 830 ft | 155 kts | 7° |
| 2026-05-07 21:46 | 11.18757 | 125.02492 | 648 ft | 155 kts | 7° |
| 2026-05-07 21:46 | 11.19836 | 125.02582 | 428 ft | 154 kts | 8° |
| 2026-05-07 21:46 | 11.20910 | 125.02650 | 236 ft | 154 kts | 6° |
| 2026-05-07 21:46 | 11.21981 | 125.02721 | 46 ft | 151 kts | 6° |
| 2026-05-07 21:47 | 11.22968 | 125.02791 | 18 ft | 116 kts | 4° |
| 2026-05-07 21:47 | 11.23519 | 125.02825 | 18 ft | 51 kts | 8° |